Time;durP1;ratioP1;P1;durP2;ratioP2;P2;SDS_P1;SDS_P2;PMS_P1;PMS_P2;Temp;Humidity;BMP_temperature;BMP_pressure;BME280_temperature;BME280_humidity;BME280_pressure;Samples;Min_cycle;Max_cycle;Signal;HPM_P1;HPM_P2
2022/05/30 05:44:06;;;;;;;3.15;2.10;;;10.10;99.90;;;;;;5070851;28;20549;-74
2022/05/30 05:46:32;;;;;;;2.42;2.22;;;10.10;99.90;;;;;;5069705;28;20280;-74
2022/05/30 05:48:59;;;;;;;2.40;2.20;;;10.30;99.90;;;;;;5069740;28;20208;-74
2022/05/30 05:54:46;;;;;;;2.60;2.15;;;10.40;99.90;;;;;;5070911;28;20204;-76
2022/05/30 05:57:12;;;;;;;3.63;2.40;;;10.40;99.90;;;;;;5071133;28;20169;-74
2022/05/30 05:59:37;;;;;;;2.80;2.15;;;10.50;99.90;;;;;;5069933;28;20205;-74
2022/05/30 06:02:07;;;;;;;4.70;2.67;;;10.60;99.90;;;;;;5070037;28;20173;-76
2022/05/30 06:04:32;;;;;;;3.05;2.33;;;10.70;99.90;;;;;;5071631;28;20190;-76
2022/05/30 06:07:02;;;;;;;3.22;2.30;;;10.90;99.90;;;;;;5073282;28;20177;-75
2022/05/30 06:09:27;;;;;;;4.07;2.40;;;11.20;99.90;;;;;;5072818;28;20186;-75
2022/05/30 06:11:53;;;;;;;3.67;2.53;;;11.50;99.90;;;;;;5071774;28;20319;-74
2022/05/30 06:14:19;;;;;;;4.28;2.55;;;11.70;99.90;;;;;;5071978;28;20194;-74
2022/05/30 06:16:45;;;;;;;4.80;2.50;;;11.70;99.90;;;;;;5072617;28;20184;-75
2022/05/30 06:19:10;;;;;;;3.55;2.38;;;12.00;99.90;;;;;;5073472;28;20201;-74
2022/05/30 06:21:36;;;;;;;4.18;2.25;;;12.60;99.90;;;;;;5073397;28;20197;-74
2022/05/30 06:24:02;;;;;;;2.95;1.83;;;13.30;99.90;;;;;;5072291;28;20198;-76
2022/05/30 06:26:27;;;;;;;4.28;2.10;;;14.20;99.90;;;;;;5072970;28;20551;-74
2022/05/30 06:28:57;;;;;;;6.28;2.20;;;15.10;99.90;;;;;;5072664;28;20231;-76
2022/05/30 06:31:27;;;;;;;2.85;1.83;;;15.80;97.50;;;;;;5073273;28;20243;-74
2022/05/30 06:33:56;;;;;;;2.75;1.80;;;16.40;94.90;;;;;;5072563;28;20652;-74
2022/05/30 06:36:23;;;;;;;1.80;1.58;;;17.20;90.60;;;;;;5071923;28;20176;-74
2022/05/30 06:38:50;;;;;;;1.80;1.70;;;17.50;86.20;;;;;;5071815;28;20201;-74
2022/05/30 06:41:22;;;;;;;5.20;1.98;;;17.70;82.70;;;;;;5073135;28;20232;-74
2022/05/30 06:43:51;;;;;;;3.08;2.10;;;18.10;81.80;;;;;;5071301;28;20201;-74
2022/05/30 06:46:17;;;;;;;3.13;1.70;;;17.70;82.10;;;;;;5072738;28;20177;-74
2022/05/30 06:48:43;;;;;;;4.47;1.73;;;17.10;81.80;;;;;;5071954;28;20555;-76
2022/05/30 06:51:12;;;;;;;4.47;2.10;;;17.00;84.30;;;;;;5062287;28;20182;-75
2022/05/30 06:53:40;;;;;;;3.78;1.70;;;16.60;83.40;;;;;;5059070;28;20203;-78
2022/05/30 06:58:12;;;;;;;8.40;2.45;;;16.00;85.20;;;;;;5059415;28;20169;-74
2022/05/30 06:59:31;;;;;;;3.08;2.00;;;15.40;89.10;;;;;;5052186;28;20185;-75
2022/05/30 07:01:59;;;;;;;6.35;2.35;;;15.10;91.00;;;;;;5056857;28;20255;-74
2022/05/30 07:04:25;;;;;;;2.97;1.83;;;15.10;90.90;;;;;;5057232;28;20247;-74
2022/05/30 07:06:51;;;;;;;5.63;1.98;;;14.90;90.10;;;;;;5057849;28;20174;-74
2022/05/30 07:09:17;;;;;;;3.03;2.10;;;14.90;90.60;;;;;;5057476;28;20208;-74
2022/05/30 07:11:43;;;;;;;3.25;2.03;;;14.80;91.80;;;;;;5058621;28;20189;-74
2022/05/30 07:14:12;;;;;;;5.18;2.70;;;14.70;92.10;;;;;;5058228;28;20254;-74
2022/05/30 07:16:39;;;;;;;6.35;3.40;;;14.20;92.40;;;;;;5055193;28;20201;-74
2022/05/30 07:19:07;;;;;;;4.50;2.50;;;14.20;93.90;;;;;;5057324;28;20174;-74
2022/05/30 07:21:32;;;;;;;27.80;9.30;;;14.40;93.30;;;;;;5056969;28;20592;-74
2022/05/30 07:23:58;;;;;;;17.73;5.95;;;14.30;93.00;;;;;;5055584;28;20286;-74
2022/05/30 07:26:24;;;;;;;16.00;6.65;;;14.60;93.00;;;;;;5056661;28;20645;-74
2022/05/30 07:28:51;;;;;;;8.15;3.60;;;14.90;92.80;;;;;;5056608;28;20561;-74
2022/05/30 07:31:19;;;;;;;15.93;5.03;;;15.10;92.20;;;;;;5056505;28;20237;-75
2022/05/30 07:33:47;;;;;;;18.60;7.22;;;15.20;91.20;;;;;;5055846;28;20202;-75
2022/05/30 07:36:21;;;;;;;27.25;9.60;;;15.10;90.20;;;;;;5056660;28;20220;-74
2022/05/30 07:38:47;;;;;;;12.68;5.05;;;15.10;90.50;;;;;;5057048;28;20204;-74
2022/05/30 07:41:13;;;;;;;13.32;4.82;;;15.10;89.30;;;;;;5055907;28;20273;-74
2022/05/30 07:43:39;;;;;;;11.18;4.45;;;15.10;89.40;;;;;;5057803;28;20204;-77
2022/05/30 07:46:07;;;;;;;2.83;1.63;;;14.90;87.90;;;;;;5056521;28;20182;-76
2022/05/30 07:48:33;;;;;;;3.45;1.60;;;14.80;89.30;;;;;;5057332;28;20212;-74
2022/05/30 07:51:00;;;;;;;3.55;1.75;;;14.70;88.20;;;;;;5058641;28;20205;-74
2022/05/30 07:53:26;;;;;;;1.77;1.50;;;14.80;88.20;;;;;;5057975;28;20209;-74
2022/05/30 07:55:52;;;;;;;2.47;1.90;;;14.90;90.10;;;;;;5057388;28;20170;-74
2022/05/30 07:58:19;;;;;;;3.28;1.58;;;15.10;87.60;;;;;;5059124;28;20265;-74
2022/05/30 08:00:47;;;;;;;5.18;1.60;;;15.20;88.50;;;;;;5058021;28;20189;-74
2022/05/30 08:03:14;;;;;;;2.42;1.55;;;15.30;88.20;;;;;;5056306;28;20573;-74
2022/05/30 08:05:43;;;;;;;3.58;1.52;;;15.50;85.90;;;;;;5057509;28;20175;-74
2022/05/30 08:08:09;;;;;;;3.80;1.73;;;15.80;85.00;;;;;;5057707;28;20200;-74
2022/05/30 08:10:34;;;;;;;2.58;1.48;;;16.00;80.30;;;;;;5056996;28;20212;-74
2022/05/30 08:13:00;;;;;;;4.03;1.52;;;16.40;77.30;;;;;;5056214;28;20198;-74
2022/05/30 08:15:26;;;;;;;4.68;1.42;;;16.90;76.10;;;;;;5057481;28;20170;-74
2022/05/30 08:17:56;;;;;;;2.13;1.35;;;17.50;73.00;;;;;;5058046;28;20212;-74
2022/05/30 08:20:23;;;;;;;2.47;1.40;;;17.70;68.30;;;;;;5058549;28;20178;-74
2022/05/30 08:22:49;;;;;;;1.60;1.30;;;18.10;67.80;;;;;;5059817;28;20535;-74
2022/05/30 08:25:16;;;;;;;2.47;1.52;;;18.20;65.80;;;;;;5059232;28;20246;-74
2022/05/30 08:27:43;;;;;;;2.28;1.30;;;18.20;65.20;;;;;;5060138;28;20228;-74
2022/05/30 08:30:11;;;;;;;1.65;1.30;;;18.40;65.60;;;;;;5058786;28;20259;-76
2022/05/30 08:32:39;;;;;;;3.67;1.85;;;17.80;67.80;;;;;;5056687;28;20177;-74
2022/05/30 08:35:06;;;;;;;2.80;1.40;;;17.80;67.70;;;;;;5057189;28;20178;-74
2022/05/30 08:37:33;;;;;;;1.88;1.27;;;17.30;68.70;;;;;;5056067;28;20176;-74
2022/05/30 08:43:14;;;;;;;4.18;1.60;;;16.70;64.50;;;;;;5057090;28;20209;-74
2022/05/30 08:45:41;;;;;;;3.10;1.52;;;16.60;69.20;;;;;;5055318;28;20645;-74
2022/05/30 08:48:17;;;;;;;3.70;1.52;;;16.80;69.80;;;;;;5055973;28;20189;-74
2022/05/30 08:51:16;;;;;;;1.30;1.20;;;16.90;69.30;;;;;;5055469;28;20546;-74
2022/05/30 08:54:04;;;;;;;1.83;1.30;;;17.00;69.70;;;;;;5056034;28;20221;-74
2022/05/30 08:56:42;;;;;;;15.40;2.22;;;17.40;69.30;;;;;;5037623;28;20723;-74
2022/05/30 08:59:23;;;;;;;3.85;1.63;;;17.80;69.20;;;;;;5058155;28;20174;-76
2022/05/30 09:01:53;;;;;;;3.60;1.42;;;18.00;66.70;;;;;;5055785;28;20174;-74
2022/05/30 09:04:36;;;;;;;4.35;1.45;;;17.90;65.30;;;;;;5056059;28;20684;-74
2022/05/30 09:07:05;;;;;;;5.35;1.45;;;17.90;66.30;;;;;;5055887;28;20162;-76
2022/05/30 09:09:52;;;;;;;4.65;1.30;;;18.00;65.60;;;;;;5056333;28;20669;-75
2022/05/30 09:12:33;;;;;;;2.13;1.20;;;18.00;63.90;;;;;;5056321;28;20233;-75
2022/05/30 09:15:14;;;;;;;4.78;1.33;;;17.90;62.70;;;;;;5055830;28;20174;-76
2022/05/30 09:17:52;;;;;;;3.20;1.23;;;17.20;63.60;;;;;;5056677;28;20157;-74
2022/05/30 09:20:20;;;;;;;2.90;1.58;;;16.90;64.80;;;;;;5055582;28;20285;-74
2022/05/30 09:22:47;;;;;;;4.75;1.33;;;17.10;64.10;;;;;;5055535;28;20245;-74
2022/05/30 09:28:00;;;;;;;4.80;1.17;;;17.40;62.30;;;;;;5053439;28;20640;-73
2022/05/30 09:30:35;;;;;;;2.05;1.35;;;17.40;63.20;;;;;;5052258;28;20209;-74
2022/05/30 09:33:20;;;;;;;3.97;1.40;;;17.50;61.50;;;;;;5051964;28;20227;-74
2022/05/30 09:35:46;;;;;;;3.63;1.38;;;17.70;62.10;;;;;;5052107;28;20177;-74
2022/05/30 09:38:19;;;;;;;2.60;1.50;;;17.50;61.20;;;;;;5052446;28;20166;-74
2022/05/30 09:40:49;;;;;;;2.55;1.60;;;17.00;65.30;;;;;;5051952;28;20182;-74
2022/05/30 09:43:25;;;;;;;1.40;1.30;;;16.80;65.00;;;;;;5051847;28;20204;-74
2022/05/30 09:45:51;;;;;;;5.32;1.45;;;16.80;64.20;;;;;;5051940;28;20185;-73
2022/05/30 09:48:19;;;;;;;2.08;1.45;;;16.80;64.90;;;;;;5051833;28;20182;-72
2022/05/30 09:50:53;;;;;;;2.38;1.50;;;16.90;62.10;;;;;;5051784;28;20181;-74
2022/05/30 09:53:44;;;;;;;2.10;1.40;;;16.80;60.70;;;;;;5052346;28;20198;-73
2022/05/30 09:56:13;;;;;;;1.65;1.23;;;17.00;63.90;;;;;;5053282;28;20275;-73
2022/05/30 09:58:59;;;;;;;2.20;1.60;;;17.40;62.40;;;;;;5051654;28;20174;-74
2022/05/30 10:01:26;;;;;;;4.70;1.60;;;17.50;62.70;;;;;;5053020;28;20162;-74
2022/05/30 10:03:56;;;;;;;1.77;1.38;;;17.80;63.70;;;;;;5051742;28;20681;-74
2022/05/30 10:06:27;;;;;;;1.35;1.20;;;17.80;62.10;;;;;;5051624;28;20275;-74
2022/05/30 10:09:21;;;;;;;1.58;1.00;;;17.70;59.30;;;;;;5051886;28;20213;-74
2022/05/30 10:11:54;;;;;;;5.38;1.50;;;17.60;58.10;;;;;;5053438;28;20621;-74
2022/05/30 10:14:22;;;;;;;2.67;1.75;;;17.60;58.70;;;;;;5052777;28;20695;-74
2022/05/30 10:16:49;;;;;;;3.67;2.38;;;17.80;60.50;;;;;;5051768;28;20269;-74
2022/05/30 10:19:31;;;;;;;2.55;1.60;;;18.10;60.50;;;;;;5051707;28;20220;-74
2022/05/30 10:28:27;;;;;;;8.48;3.15;;;17.50;57.60;;;;;;5056934;28;20170;-74
2022/05/30 10:31:30;;;;;;;2.65;1.30;;;17.50;58.90;;;;;;5056816;28;20172;-74
2022/05/30 10:34:14;;;;;;;2.05;1.30;;;17.40;59.50;;;;;;5055025;28;20189;-74
2022/05/30 10:36:52;;;;;;;2.47;1.25;;;17.10;58.70;;;;;;5055104;28;20181;-74
2022/05/30 10:39:17;;;;;;;2.92;2.60;;;17.00;59.70;;;;;;5055309;28;20312;-73
2022/05/30 10:42:12;;;;;;;13.07;3.50;;;17.20;58.80;;;;;;5055321;28;20205;-73
2022/05/30 10:44:54;;;;;;;3.97;1.98;;;17.60;58.40;;;;;;5039535;28;20210;-73
2022/05/30 10:47:49;;;;;;;3.53;1.30;;;18.00;57.50;;;;;;5055634;28;20170;-74
2022/05/30 10:50:43;;;;;;;2.97;1.08;;;18.30;55.70;;;;;;5053510;28;20225;-74
2022/05/30 10:53:23;;;;;;;1.73;1.10;;;18.20;54.40;;;;;;5054825;28;20201;-74
2022/05/30 10:55:52;;;;;;;1.40;1.02;;;18.30;54.60;;;;;;5055568;28;20224;-74
2022/05/30 10:58:33;;;;;;;1.27;1.00;;;18.40;53.80;;;;;;5055004;28;20174;-73
2022/05/30 11:01:04;;;;;;;2.38;0.95;;;18.30;53.00;;;;;;5056035;28;20189;-73
2022/05/30 11:03:40;;;;;;;2.65;1.20;;;18.20;53.10;;;;;;5055817;28;20194;-74
2022/05/30 11:06:14;;;;;;;1.13;0.90;;;18.60;53.40;;;;;;5055065;28;20181;-74
2022/05/30 11:09:00;;;;;;;4.68;1.30;;;18.70;53.90;;;;;;5054768;28;20197;-74
2022/05/30 11:11:47;;;;;;;0.90;0.80;;;18.80;54.00;;;;;;5055257;28;20228;-74
2022/05/30 11:14:37;;;;;;;1.48;0.98;;;19.10;49.90;;;;;;5055651;28;20217;-74
2022/05/30 11:17:17;;;;;;;1.65;0.77;;;19.30;51.10;;;;;;5054518;28;20174;-74
2022/05/30 11:19:54;;;;;;;1.02;0.80;;;19.50;50.40;;;;;;5054964;28;20174;-74
2022/05/30 11:22:42;;;;;;;1.40;0.90;;;19.60;52.20;;;;;;5054531;28;20541;-74
2022/05/30 11:25:16;;;;;;;1.75;0.90;;;19.60;50.80;;;;;;5055523;28;20150;-74
2022/05/30 11:28:15;;;;;;;1.58;1.33;;;19.40;51.40;;;;;;5055431;28;20163;-74
2022/05/30 11:30:47;;;;;;;0.75;0.75;;;19.30;50.60;;;;;;5032008;28;20644;-74
2022/05/30 11:33:33;;;;;;;5.70;1.30;;;19.40;52.40;;;;;;5054751;28;20206;-74
2022/05/30 11:36:10;;;;;;;1.83;1.20;;;18.60;52.80;;;;;;5055593;28;20170;-74
2022/05/30 11:38:55;;;;;;;2.20;1.15;;;18.30;53.90;;;;;;5055012;28;20197;-74
2022/05/30 11:41:49;;;;;;;1.10;1.00;;;18.10;54.90;;;;;;5054338;28;20209;-74
2022/05/30 11:44:42;;;;;;;2.30;1.20;;;18.30;54.40;;;;;;5054358;28;20237;-74
2022/05/30 11:47:31;;;;;;;4.28;1.20;;;18.60;54.20;;;;;;5054501;28;20182;-74
2022/05/30 11:50:15;;;;;;;1.50;1.23;;;19.00;54.10;;;;;;5053730;28;20339;-74
2022/05/30 11:52:40;;;;;;;1.70;1.10;;;19.00;54.80;;;;;;5053640;28;20266;-74
2022/05/30 11:55:25;;;;;;;1.40;0.95;;;18.70;54.80;;;;;;5054903;28;20253;-74
2022/05/30 11:57:59;;;;;;;2.65;1.30;;;18.30;56.30;;;;;;5053740;28;20163;-74
2022/05/30 12:00:45;;;;;;;1.55;1.10;;;18.60;57.20;;;;;;5054082;28;20178;-73
2022/05/30 12:03:38;;;;;;;3.03;1.15;;;18.50;56.70;;;;;;5053811;28;20204;-73
2022/05/30 12:06:10;;;;;;;3.13;1.35;;;18.80;56.00;;;;;;5054087;28;20170;-73
2022/05/30 12:09:07;;;;;;;1.35;1.17;;;18.50;55.40;;;;;;5054562;28;20230;-73
2022/05/30 12:11:41;;;;;;;2.75;1.20;;;18.60;55.20;;;;;;5047384;28;20182;-73
2022/05/30 12:14:45;;;;;;;1.05;1.00;;;18.80;55.30;;;;;;5053668;28;20199;-73
2022/05/30 12:23:48;;;;;;;3.35;1.52;;;19.00;55.30;;;;;;5054404;28;20205;-74
2022/05/30 12:26:13;;;;;;;3.70;2.67;;;19.10;56.80;;;;;;5054721;28;20199;-73
2022/05/30 12:28:42;;;;;;;2.63;1.30;;;19.00;55.70;;;;;;5053261;28;20296;-74
2022/05/30 12:31:08;;;;;;;1.90;1.20;;;18.60;55.90;;;;;;5052983;28;20711;-74
2022/05/30 12:33:34;;;;;;;1.40;1.20;;;18.50;55.80;;;;;;5054512;28;20194;-73
2022/05/30 12:36:08;;;;;;;1.38;1.08;;;18.40;54.90;;;;;;5053479;28;20519;-73
2022/05/30 12:38:53;;;;;;;1.48;1.30;;;18.10;55.90;;;;;;5054348;28;20193;-73
2022/05/30 12:41:54;;;;;;;4.82;1.20;;;18.20;56.70;;;;;;5053388;28;20186;-73
2022/05/30 12:44:44;;;;;;;2.00;1.40;;;18.50;56.30;;;;;;5053162;28;20331;-74
2022/05/30 12:47:27;;;;;;;1.88;1.30;;;18.70;54.10;;;;;;5052539;28;20209;-74
2022/05/30 12:50:25;;;;;;;3.28;1.08;;;18.60;53.30;;;;;;5052246;28;20194;-74
2022/05/30 12:52:56;;;;;;;1.10;1.00;;;18.30;54.60;;;;;;5053947;28;20198;-74
2022/05/30 12:55:35;;;;;;;2.42;1.70;;;18.20;54.60;;;;;;5054073;28;20171;-74
2022/05/30 12:58:01;;;;;;;1.27;1.17;;;18.00;55.60;;;;;;5052479;28;20181;-74
2022/05/30 13:00:36;;;;;;;1.67;1.10;;;18.00;56.30;;;;;;5052760;28;20174;-74
2022/05/30 13:03:09;;;;;;;2.25;1.05;;;18.40;55.20;;;;;;5053120;28;20204;-74
2022/05/30 13:05:40;;;;;;;3.13;1.10;;;19.00;53.70;;;;;;5052576;28;20659;-74
2022/05/30 13:08:57;;;;;;;1.27;1.00;;;19.60;53.40;;;;;;5052352;28;20228;-74
2022/05/30 13:11:22;;;;;;;1.80;1.23;;;19.90;53.70;;;;;;5030289;28;20194;-74
2022/05/30 13:13:53;;;;;;;1.20;1.10;;;20.30;52.00;;;;;;5053505;28;20692;-74
2022/05/30 13:16:34;;;;;;;2.88;1.02;;;19.90;51.50;;;;;;5053611;28;20174;-74
2022/05/30 13:19:00;;;;;;;2.83;1.25;;;19.60;52.60;;;;;;5053183;28;20185;-74
2022/05/30 13:21:28;;;;;;;2.38;1.10;;;19.20;55.80;;;;;;5052849;28;20185;-74
2022/05/30 13:23:54;;;;;;;1.25;1.10;;;18.90;56.00;;;;;;5052305;28;20198;-73
2022/05/30 13:26:20;;;;;;;2.67;1.27;;;18.50;56.30;;;;;;5052122;28;20181;-73
2022/05/30 13:28:49;;;;;;;2.08;1.00;;;18.20;55.60;;;;;;5051943;28;20247;-73
2022/05/30 13:31:15;;;;;;;3.53;1.40;;;18.10;57.70;;;;;;5052061;28;20185;-74
2022/05/30 13:33:48;;;;;;;2.40;1.00;;;18.20;57.50;;;;;;5053247;28;20191;-74
2022/05/30 13:36:29;;;;;;;2.75;1.25;;;18.10;55.50;;;;;;5052631;28;20224;-74
2022/05/30 13:38:56;;;;;;;1.40;1.20;;;17.90;55.40;;;;;;5051946;28;20204;-74
2022/05/30 13:41:26;;;;;;;5.72;1.48;;;17.80;55.80;;;;;;5051967;28;20644;-72
2022/05/30 13:43:54;;;;;;;6.57;1.30;;;17.60;57.00;;;;;;5051929;28;20216;-73
2022/05/30 13:46:32;;;;;;;3.35;1.15;;;17.30;58.20;;;;;;5052300;28;20177;-73
2022/05/30 13:48:58;;;;;;;1.52;1.10;;;17.30;58.50;;;;;;5053002;28;20189;-73
2022/05/30 13:51:37;;;;;;;3.03;1.35;;;17.30;57.40;;;;;;5052373;28;20248;-73
2022/05/30 13:54:06;;;;;;;2.05;0.95;;;17.30;57.40;;;;;;5051718;28;20225;-74
2022/05/30 13:56:36;;;;;;;1.98;1.00;;;17.40;55.20;;;;;;5052060;28;20182;-74
2022/05/30 13:59:20;;;;;;;4.07;1.10;;;17.30;54.80;;;;;;5052184;28;20166;-73
2022/05/30 14:01:54;;;;;;;3.03;1.20;;;17.40;54.00;;;;;;5055128;28;20170;-74
2022/05/30 14:04:32;;;;;;;1.85;1.23;;;17.50;54.70;;;;;;5057165;28;20575;-74
2022/05/30 14:06:58;;;;;;;4.13;1.42;;;17.70;55.10;;;;;;5057890;28;20166;-74
2022/05/30 14:09:24;;;;;;;4.10;1.33;;;17.60;56.10;;;;;;5056616;28;20209;-74
2022/05/30 14:11:53;;;;;;;2.60;1.30;;;17.80;55.70;;;;;;5055770;28;20174;-73
2022/05/30 14:14:42;;;;;;;5.05;1.23;;;18.00;54.30;;;;;;5055747;28;20276;-74
2022/05/30 14:17:09;;;;;;;7.15;1.80;;;18.20;54.60;;;;;;5057836;28;20163;-75
2022/05/30 14:19:39;;;;;;;3.22;1.40;;;18.40;56.20;;;;;;5057435;28;20178;-75
2022/05/30 14:22:15;;;;;;;3.20;1.25;;;18.20;55.40;;;;;;5057389;28;20178;-74
2022/05/30 14:25:00;;;;;;;3.15;1.35;;;18.40;56.20;;;;;;5057575;28;20244;-74
2022/05/30 14:27:36;;;;;;;1.52;1.23;;;18.50;55.60;;;;;;5056469;28;20170;-73
2022/05/30 14:30:10;;;;;;;11.70;1.90;;;18.70;55.00;;;;;;5056155;28;20198;-72
2022/05/30 14:32:37;;;;;;;1.48;1.20;;;18.90;55.80;;;;;;5057354;28;20520;-73
2022/05/30 14:35:23;;;;;;;1.30;1.20;;;19.20;53.80;;;;;;5056600;28;20243;-72
2022/05/30 14:37:52;;;;;;;1.60;1.30;;;19.50;52.60;;;;;;5055475;28;20190;-72
2022/05/30 14:40:26;;;;;;;1.95;1.40;;;19.70;50.70;;;;;;5055971;28;20198;-73
2022/05/30 14:42:57;;;;;;;1.17;1.08;;;19.60;51.10;;;;;;5055487;28;20201;-73
2022/05/30 14:45:42;;;;;;;1.05;1.00;;;19.20;51.00;;;;;;5056466;28;20178;-72
2022/05/30 14:48:10;;;;;;;3.55;1.45;;;19.00;52.80;;;;;;5055548;28;20507;-72
2022/05/30 14:50:43;;;;;;;2.10;1.30;;;18.70;52.30;;;;;;5055043;28;20288;-72
2022/05/30 14:53:14;;;;;;;1.08;0.98;;;18.30;53.30;;;;;;5055542;28;20336;-74
2022/05/30 14:55:54;;;;;;;2.13;1.30;;;17.90;54.00;;;;;;5055834;28;20277;-74
2022/05/30 14:58:28;;;;;;;2.53;1.30;;;17.60;54.70;;;;;;5055414;28;20182;-74
2022/05/30 15:01:02;;;;;;;2.67;1.20;;;17.60;55.50;;;;;;5055385;28;20166;-75
2022/05/30 15:06:28;;;;;;;1.38;1.13;;;17.50;55.70;;;;;;5056488;28;20173;-73
2022/05/30 15:08:54;;;;;;;1.52;1.20;;;17.50;55.50;;;;;;5055335;28;20241;-75
2022/05/30 15:11:24;;;;;;;1.10;1.05;;;17.50;56.00;;;;;;5055246;28;20200;-81
2022/05/30 15:13:58;;;;;;;1.25;1.15;;;17.60;56.10;;;;;;5055882;28;20194;-76
2022/05/30 15:16:25;;;;;;;1.30;1.17;;;17.40;54.00;;;;;;5057218;28;20638;-76
2022/05/30 15:18:51;;;;;;;1.73;1.08;;;17.40;55.20;;;;;;5055200;28;20185;-72
2022/05/30 15:21:20;;;;;;;1.88;1.20;;;17.40;55.00;;;;;;5055593;28;20213;-75
2022/05/30 15:23:47;;;;;;;3.42;1.27;;;17.30;54.60;;;;;;5055495;28;20209;-73
2022/05/30 15:26:12;;;;;;;2.22;1.30;;;17.30;55.40;;;;;;5054927;28;20213;-72
2022/05/30 15:28:39;;;;;;;1.55;1.20;;;17.50;55.40;;;;;;5054967;28;20546;-75
2022/05/30 15:31:05;;;;;;;4.38;1.40;;;17.70;55.20;;;;;;5055446;28;20707;-73
2022/05/30 15:33:33;;;;;;;3.40;1.33;;;17.80;54.80;;;;;;5054671;28;20210;-73
2022/05/30 15:36:02;;;;;;;1.33;1.20;;;17.80;56.00;;;;;;5054593;28;20189;-75
2022/05/30 15:38:32;;;;;;;2.90;1.48;;;18.00;55.70;;;;;;5055073;28;20273;-74
2022/05/30 15:40:59;;;;;;;2.83;1.33;;;17.80;54.90;;;;;;5055950;28;20189;-74
2022/05/30 15:43:25;;;;;;;9.32;2.05;;;17.90;55.50;;;;;;5054878;28;20195;-74
2022/05/30 15:46:23;;;;;;;4.80;1.40;;;17.90;55.20;;;;;;5054052;28;20185;-74
2022/05/30 15:48:50;;;;;;;2.03;1.27;;;17.60;55.40;;;;;;5053963;28;20186;-74
2022/05/30 15:51:18;;;;;;;2.08;1.30;;;17.50;55.80;;;;;;5053942;28;20237;-74
2022/05/30 15:59:17;;;;;;;1.80;1.27;;;17.50;56.60;;;;;;5055597;28;20177;-75
2022/05/30 16:01:42;;;;;;;2.30;1.50;;;17.50;55.70;;;;;;5054065;28;20236;-73
2022/05/30 16:04:42;;;;;;;1.33;1.20;;;17.40;56.20;;;;;;5054515;28;20201;-73
2022/05/30 16:07:10;;;;;;;1.17;1.10;;;17.30;57.30;;;;;;5053577;28;20253;-73
2022/05/30 16:09:38;;;;;;;3.13;1.42;;;17.10;57.30;;;;;;5053813;28;20215;-73
2022/05/30 16:12:06;;;;;;;2.50;1.20;;;16.90;57.90;;;;;;5053718;28;20173;-73
2022/05/30 16:14:31;;;;;;;2.38;1.25;;;16.80;58.30;;;;;;5053802;28;20198;-73
2022/05/30 16:16:57;;;;;;;3.22;1.30;;;16.80;57.80;;;;;;5054244;28;20178;-73
2022/05/30 16:19:23;;;;;;;1.80;1.27;;;16.80;58.20;;;;;;5053291;28;20180;-73
2022/05/30 16:21:55;;;;;;;2.15;1.48;;;16.70;57.50;;;;;;5054199;28;20201;-72
2022/05/30 16:24:23;;;;;;;3.78;1.50;;;16.50;57.50;;;;;;5052411;28;20212;-73
2022/05/30 16:26:50;;;;;;;1.38;1.20;;;16.30;58.50;;;;;;5054081;28;20281;-72
2022/05/30 16:29:15;;;;;;;22.85;2.47;;;16.10;59.10;;;;;;5053386;28;20210;-72
2022/05/30 16:32:32;;;;;;;12.52;1.88;;;16.10;60.30;;;;;;5053399;28;20166;-72
2022/05/30 16:34:57;;;;;;;1.23;1.17;;;16.00;59.00;;;;;;5052962;28;20169;-73
2022/05/30 16:37:26;;;;;;;1.48;1.38;;;16.10;58.40;;;;;;5053330;28;20179;-73
2022/05/30 16:39:52;;;;;;;1.60;1.33;;;16.20;58.30;;;;;;5052775;28;20545;-73
2022/05/30 16:42:18;;;;;;;2.90;1.40;;;16.30;57.70;;;;;;5052932;28;20251;-73
2022/05/30 16:44:43;;;;;;;1.20;1.20;;;16.20;57.70;;;;;;5053195;28;20232;-73
2022/05/30 16:47:09;;;;;;;2.85;1.50;;;16.10;56.90;;;;;;5052789;28;20251;-72
2022/05/30 16:49:36;;;;;;;2.50;1.33;;;16.10;56.90;;;;;;5054771;28;20205;-73
2022/05/30 16:52:06;;;;;;;1.75;1.38;;;16.00;57.30;;;;;;5054038;28;20227;-75
2022/05/30 16:54:31;;;;;;;3.85;1.30;;;15.90;57.20;;;;;;5053252;28;20194;-75
2022/05/30 16:56:59;;;;;;;4.43;1.20;;;15.80;57.30;;;;;;5053834;28;20189;-74
2022/05/30 16:59:26;;;;;;;1.40;1.23;;;15.70;58.10;;;;;;5053266;28;20184;-74
2022/05/30 17:05:13;;;;;;;3.90;1.50;;;15.60;60.80;;;;;;5054238;28;20221;-74
2022/05/30 17:07:39;;;;;;;6.18;2.10;;;15.50;60.30;;;;;;5052793;28;20217;-74
2022/05/30 17:10:06;;;;;;;3.72;1.65;;;15.50;60.90;;;;;;5052700;28;20213;-74
2022/05/30 17:12:31;;;;;;;4.10;1.63;;;15.50;61.00;;;;;;5052697;28;20344;-74
2022/05/30 17:14:57;;;;;;;1.60;1.30;;;15.40;62.90;;;;;;5052586;28;20717;-74
2022/05/30 17:17:23;;;;;;;3.50;1.50;;;15.50;62.50;;;;;;5052347;28;20668;-74
2022/05/30 17:19:56;;;;;;;3.50;1.42;;;15.50;63.40;;;;;;5052572;28;20660;-74
2022/05/30 17:22:22;;;;;;;2.67;1.40;;;15.50;63.70;;;;;;5053570;28;20205;-74
2022/05/30 17:24:49;;;;;;;6.22;1.52;;;15.60;63.10;;;;;;5053387;28;20232;-74
2022/05/30 17:30:07;;;;;;;1.77;1.67;;;15.60;61.70;;;;;;5053792;28;20197;-74
2022/05/30 17:32:34;;;;;;;4.40;1.90;;;15.70;62.30;;;;;;5052039;28;20274;-74
2022/05/30 17:35:02;;;;;;;2.55;1.77;;;15.60;62.90;;;;;;5052775;28;20196;-74
2022/05/30 17:37:28;;;;;;;2.10;1.90;;;15.60;62.00;;;;;;5053328;28;20249;-74
2022/05/30 17:39:54;;;;;;;3.88;2.88;;;15.50;61.70;;;;;;5053563;28;20228;-74
2022/05/30 17:42:21;;;;;;;2.95;2.67;;;15.50;62.00;;;;;;5052051;28;20182;-74
2022/05/30 17:44:47;;;;;;;4.25;1.88;;;15.40;62.00;;;;;;5053183;28;20201;-74
2022/05/30 17:48:06;;;;;;;3.03;1.45;;;15.30;62.70;;;;;;5053253;28;20174;-74
2022/05/30 17:50:43;;;;;;;1.48;1.35;;;15.30;62.30;;;;;;5052804;28;20236;-74
2022/05/30 17:53:09;;;;;;;3.22;1.42;;;15.10;63.00;;;;;;5053362;28;20189;-74
2022/05/30 17:58:56;;;;;;;3.65;1.45;;;14.90;68.00;;;;;;5053411;28;20216;-73
2022/05/30 18:01:22;;;;;;;6.43;1.45;;;14.80;68.50;;;;;;5053470;28;20182;-74
2022/05/30 18:03:48;;;;;;;2.45;1.63;;;14.70;69.10;;;;;;5052958;28;20205;-74
2022/05/30 18:06:22;;;;;;;5.10;1.67;;;14.70;69.90;;;;;;5052054;28;20178;-74
2022/05/30 18:09:28;;;;;;;2.40;2.20;;;14.60;71.60;;;;;;5051780;28;20280;-74
2022/05/30 18:12:06;;;;;;;3.22;1.63;;;14.50;71.00;;;;;;5051400;28;20676;-74
2022/05/30 18:14:34;;;;;;;1.65;1.50;;;14.30;71.10;;;;;;5051688;28;20198;-73
2022/05/30 18:17:25;;;;;;;4.30;1.77;;;14.20;71.30;;;;;;5051660;28;20183;-73
2022/05/30 18:20:08;;;;;;;1.63;1.38;;;13.90;72.00;;;;;;5052618;28;20296;-73
2022/05/30 18:22:55;;;;;;;2.17;1.48;;;13.80;73.30;;;;;;5051633;28;20185;-73
2022/05/30 18:25:31;;;;;;;3.13;1.35;;;13.70;73.90;;;;;;5053081;28;20170;-73
2022/05/30 18:27:58;;;;;;;3.15;1.50;;;13.70;74.70;;;;;;5052892;28;20198;-73
2022/05/30 18:30:27;;;;;;;3.65;1.38;;;13.60;75.40;;;;;;5051567;28;20256;-73
2022/05/30 18:36:32;;;;;;;2.22;1.25;;;13.40;76.00;;;;;;5053120;28;20161;-73
2022/05/30 18:39:25;;;;;;;3.75;1.30;;;13.30;77.10;;;;;;5052442;28;20182;-73
2022/05/30 18:42:00;;;;;;;2.70;1.65;;;13.20;77.70;;;;;;5052145;28;20213;-73
2022/05/30 18:45:04;;;;;;;3.13;1.67;;;13.10;78.80;;;;;;5051432;28;20201;-73
2022/05/30 18:47:45;;;;;;;1.50;1.40;;;13.10;80.10;;;;;;5047542;28;20247;-73
2022/05/30 18:50:13;;;;;;;1.42;1.33;;;13.00;81.10;;;;;;5056494;28;20198;-73
2022/05/30 18:52:41;;;;;;;2.05;1.42;;;12.80;82.50;;;;;;5055314;28;20652;-73
2022/05/30 18:55:10;;;;;;;1.63;1.30;;;12.80;83.00;;;;;;5056200;28;20665;-73
2022/05/30 18:57:40;;;;;;;2.35;1.30;;;12.80;83.40;;;;;;5056436;28;20174;-73
2022/05/30 19:00:33;;;;;;;1.80;1.38;;;12.80;84.00;;;;;;5055739;28;20170;-73
2022/05/30 19:03:04;;;;;;;1.73;1.30;;;12.70;84.70;;;;;;5055674;28;20202;-73
2022/05/30 19:05:30;;;;;;;4.07;1.52;;;12.50;85.50;;;;;;5054808;28;20266;-73
2022/05/30 19:07:56;;;;;;;1.65;1.52;;;12.40;85.90;;;;;;5054721;28;20186;-73
2022/05/30 19:10:22;;;;;;;2.47;1.67;;;12.20;87.20;;;;;;5054868;28;20260;-73
2022/05/30 19:13:10;;;;;;;2.35;1.60;;;12.10;88.90;;;;;;5054619;28;20207;-73
2022/05/30 19:18:33;;;;;;;1.60;1.50;;;11.80;90.30;;;;;;5056276;28;20303;-73
2022/05/30 19:21:00;;;;;;;3.47;1.50;;;11.70;90.90;;;;;;5055294;28;20172;-73
2022/05/30 19:23:26;;;;;;;3.00;1.80;;;11.50;91.60;;;;;;5054689;28;20194;-73
2022/05/30 19:25:52;;;;;;;2.22;1.60;;;11.50;91.90;;;;;;5054602;28;20236;-73
2022/05/30 19:28:29;;;;;;;3.28;1.85;;;11.50;92.40;;;;;;5054339;28;20547;-73
2022/05/30 19:31:03;;;;;;;2.35;1.80;;;11.40;93.20;;;;;;5054493;28;20264;-72
2022/05/30 19:33:30;;;;;;;2.03;1.70;;;11.40;93.70;;;;;;5054124;28;20668;-73
2022/05/30 19:35:55;;;;;;;1.55;1.40;;;11.40;94.00;;;;;;5055074;28;20616;-72
2022/05/30 19:38:24;;;;;;;1.40;1.30;;;11.30;94.50;;;;;;5054140;28;20201;-72
2022/05/30 19:40:56;;;;;;;1.77;1.50;;;11.30;94.70;;;;;;5055098;28;20205;-73
2022/05/30 19:43:24;;;;;;;2.72;1.80;;;11.30;94.80;;;;;;5055505;28;20277;-73
2022/05/30 19:45:50;;;;;;;3.45;1.77;;;11.30;94.60;;;;;;5054303;28;20589;-73